Flight Track Log - Related Links

Times and Time Zones

All times are in EDT time to prevent confusion due to time zone crossing. See the GUJ160 flight status page for this flight to view local times or setup timezone preferences in your user account.

Time Position Orientation Groundspeed Altitude Reporting Facility
EDT Latitude Longitude Course Direction KTS MPH feet Rate Location/Type
Thu 09:52:15 PM 32.5351 77.4130 184° South  Level Estimated
Thu 09:53:15 PM 32.4423 77.4054 184° South  Level Estimated
Thu 09:54:15 PM 32.3495 77.3979 184° South  Level Estimated
Thu 09:55:15 PM 32.2567 77.3904 184° South  Level Estimated
Thu 09:56:15 PM 32.1640 77.3829 184° South  Level Estimated
Thu 09:57:15 PM 32.0712 77.3754 184° South  Level Estimated
Thu 09:58:15 PM 31.9784 77.3679 184° South  Level Estimated
Thu 09:59:15 PM 31.8856 77.3605 184° South  Level Estimated
Thu 10:00:15 PM 31.7928 77.3530 184° South  Level Estimated
Thu 10:01:15 PM 31.7000 77.3456 184° South  Level Estimated
Thu 10:02:15 PM 31.6072 77.3382 184° South  Level Estimated
Thu 10:03:15 PM 31.5144 77.3308 184° South  Level Estimated
Thu 10:04:15 PM 31.4216 77.3234 184° South  Level Estimated
Thu 10:05:15 PM 31.3288 77.3160 184° South  Level Estimated
Thu 10:06:15 PM 31.2360 77.3087 184° South  Level Estimated
Thu 10:07:15 PM 31.1432 77.3014 184° South  Level Estimated
Thu 10:08:15 PM 31.0504 77.2940 184° South  Level Estimated
Thu 10:09:15 PM 30.9576 77.2867 184° South  Level Estimated
Thu 10:10:15 PM 30.8648 77.2794 184° South  Level Estimated
Thu 10:11:15 PM 30.7720 77.2721 184° South  Level Estimated
Thu 10:12:15 PM 30.6792 77.2649 184° South  Level Estimated
Thu 10:13:15 PM 30.5864 77.2576 184° South  Level Estimated
Thu 10:14:15 PM 30.4936 77.2504 184° South  Level Estimated
Thu 10:15:15 PM 30.4008 77.2432 184° South  Level Estimated
Thu 10:16:15 PM 30.3080 77.2359 184° South  Level Estimated
Thu 10:17:15 PM 30.2152 77.2288 184° South  Level Estimated
Thu 10:18:15 PM 30.1224 77.2216 184° South  Level Estimated
Thu 10:19:15 PM 30.0296 77.2144 184° South  Level Estimated
Thu 10:20:15 PM 29.9368 77.2072 184° South  Level Estimated
Thu 10:21:15 PM 29.8440 77.2001 184° South  Level Estimated
Thu 10:22:15 PM 29.7512 77.1930 184° South  Level Estimated
Thu 10:23:15 PM 29.6583 77.1859 184° South  Level Estimated
Thu 10:24:15 PM 29.5655 77.1787 184° South  Level Estimated
Thu 10:25:15 PM 29.4727 77.1717 184° South  Level Estimated
Thu 10:26:15 PM 29.3799 77.1646 184° South  Level Estimated
Thu 10:27:15 PM 29.2871 77.1575 184° South  Level Estimated
Thu 10:28:15 PM 29.1943 77.1505 184° South  Level Estimated
Thu 10:29:15 PM 29.1015 77.1434 184° South  Level Estimated
Thu 10:30:15 PM 29.0087 77.1364 184° South  Level Estimated
Thu 10:31:15 PM 28.9159 77.1294 184° South  Level Estimated
Thu 10:32:15 PM 28.8230 77.1224 184° South  Level Estimated
Thu 10:33:15 PM 28.7302 77.1154 184° South  Level Estimated
Thu 10:34:15 PM 28.6374 77.1084 184° South  Level Estimated
Thu 10:35:15 PM 28.5446 77.1014 North  Level Estimated
Thu 10:36:15 PM 28.6374 77.1084 184° South  Level Estimated
Thu 10:37:15 PM 28.5446 77.1014 North  Level Estimated
Thu 10:38:15 PM 28.6374 77.1084 184° South  Level Estimated
Thu 10:39:15 PM 28.5446 77.1014 North  Level Estimated
Thu 10:40:15 PM 28.6374 77.1084 184° South  Level Estimated
Thu 10:41:15 PM 28.5446 77.1014 North  Level Estimated
Thu 10:42:15 PM 28.6374 77.1084 184° South  Level Estimated
Thu 10:43:15 PM 28.5446 77.1014 North  Level Estimated
Thu 10:44:15 PM 28.6374 77.1084 184° South  Level Estimated
Thu 10:45:15 PM 28.5446 77.1014 North  Level Estimated
Thu 10:46:15 PM 28.6374 77.1084 184° South  Level Estimated
Thu 10:47:15 PM 28.5446 77.1014 North  Level Estimated
Thu 10:48:15 PM 28.6374 77.1084 184° South  Level Estimated
Thu 10:49:15 PM 28.5446 77.1014 North  Level Estimated
Thu 10:50:15 PM 28.6374 77.1084 North  Level Estimated

Login

Don't have an account? Register now (free) for customized features, flight alerts, and more!